Time;durP1;ratioP1;P1;durP2;ratioP2;P2;SDS_P1;SDS_P2;PMS_P1;PMS_P2;Temp;Humidity;BMP_temperature;BMP_pressure;BME280_temperature;BME280_humidity;BME280_pressure;Samples;Min_cycle;Max_cycle;Signal;HPM_P1;HPM_P2
2022/03/02 16:00:29;;;;;;;15.73;12.40;;;19.30;51.80;;;;;;2299670;62;30196;-76
2022/03/02 16:02:57;;;;;;;13.30;11.50;;;19.10;57.60;;;;;;2277179;62;30426;-75
2022/03/02 16:05:27;;;;;;;15.90;12.20;;;18.90;59.30;;;;;;2276978;62;30313;-74
2022/03/02 16:07:57;;;;;;;14.52;12.73;;;18.60;58.90;;;;;;2290933;62;31082;-75
2022/03/02 16:10:23;;;;;;;15.75;11.80;;;18.50;59.80;;;;;;2287000;62;30347;-76
2022/03/02 16:12:50;;;;;;;13.65;11.93;;;18.50;61.10;;;;;;2289206;62;30316;-78
2022/03/02 16:15:37;;;;;;;16.77;11.88;;;18.30;61.30;;;;;;2275098;62;30332;-78
2022/03/02 16:18:21;;;;;;;13.57;11.38;;;18.20;61.50;;;;;;2275340;62;30375;-78
2022/03/02 16:20:50;;;;;;;12.98;11.05;;;18.10;59.80;;;;;;2281739;62;30343;-80
2022/03/02 16:23:21;;;;;;;14.55;10.95;;;18.00;61.90;;;;;;2273491;62;30256;-79
2022/03/02 16:25:54;;;;;;;;;;;17.90;61.70;;;;;;2282601;62;30784;-79
2022/03/02 16:28:21;;;;;;;13.18;11.00;;;17.80;57.70;;;;;;2290050;62;32085;-80
2022/03/02 16:30:48;;;;;;;12.00;10.77;;;17.70;62.30;;;;;;2289784;62;30472;-78
2022/03/02 16:33:14;;;;;;;14.07;10.45;;;17.60;62.20;;;;;;2282222;62;30416;-78
2022/03/02 16:35:40;;;;;;;13.77;10.57;;;17.60;62.10;;;;;;2282160;62;30712;-79
2022/03/02 16:38:10;;;;;;;12.15;10.45;;;17.50;62.10;;;;;;2275541;62;31126;-77
2022/03/02 16:40:36;;;;;;;10.93;9.82;;;17.40;62.00;;;;;;2275829;62;30210;-78
2022/03/02 16:43:04;;;;;;;11.63;10.00;;;17.30;62.00;;;;;;2282370;62;30311;-78
2022/03/02 16:45:30;;;;;;;11.68;10.23;;;17.30;62.10;;;;;;2289900;62;30126;-75
2022/03/02 16:47:56;;;;;;;12.40;10.70;;;17.20;62.00;;;;;;2289670;62;30221;-78
2022/03/02 16:50:22;;;;;;;11.98;10.68;;;17.10;62.00;;;;;;2282632;62;32150;-78
2022/03/02 16:52:48;;;;;;;12.70;10.18;;;17.10;62.00;;;;;;2289870;62;30921;-78
2022/03/02 16:55:14;;;;;;;10.85;9.68;;;17.00;62.10;;;;;;2282169;62;30300;-77
2022/03/02 16:57:41;;;;;;;14.07;10.75;;;17.00;62.10;;;;;;2282341;62;30872;-78
2022/03/02 17:00:09;;;;;;;13.02;11.07;;;16.90;62.00;;;;;;2272542;62;32124;-79
2022/03/02 17:02:39;;;;;;;13.27;10.15;;;16.90;62.10;;;;;;2273254;62;30570;-79
2022/03/02 17:05:06;;;;;;;13.63;10.57;;;16.80;62.00;;;;;;2273363;62;30155;-78
2022/03/02 17:07:33;;;;;;;12.63;11.27;;;16.80;62.10;;;;;;2279568;62;30918;-78
2022/03/02 17:09:59;;;;;;;12.25;10.27;;;16.70;62.10;;;;;;2268167;62;30109;-77
2022/03/02 17:12:28;;;;;;;12.48;10.52;;;16.70;62.30;;;;;;2260036;62;31223;-77
2022/03/02 17:14:55;;;;;;;11.30;9.98;;;16.60;62.20;;;;;;2259671;63;30281;-77
2022/03/02 17:17:21;;;;;;;12.00;10.07;;;16.50;62.20;;;;;;2258964;63;30257;-78
2022/03/02 17:19:48;;;;;;;11.85;10.63;;;16.50;62.30;;;;;;2259740;63;30573;-78
2022/03/02 17:22:14;;;;;;;12.80;10.93;;;16.50;62.40;;;;;;2260703;62;30228;-78
2022/03/02 17:24:40;;;;;;;14.00;10.80;;;16.40;62.60;;;;;;2263734;62;30100;-77
2022/03/02 17:27:06;;;;;;;12.88;11.00;;;16.40;62.60;;;;;;2266394;62;30769;-77
2022/03/02 17:29:32;;;;;;;12.35;11.00;;;16.30;62.60;;;;;;2266976;62;30109;-78
2022/03/02 17:31:58;;;;;;;12.77;10.98;;;16.30;62.80;;;;;;2266253;62;30317;-78
2022/03/02 17:34:24;;;;;;;13.07;10.85;;;16.20;62.90;;;;;;2266574;62;30311;-77
2022/03/02 17:36:50;;;;;;;13.35;10.50;;;16.20;62.90;;;;;;2266550;62;30056;-77
2022/03/02 17:39:15;;;;;;;15.45;10.30;;;16.20;62.90;;;;;;2265564;62;30903;-73
2022/03/02 17:41:41;;;;;;;12.13;10.25;;;16.20;63.10;;;;;;2266555;62;30265;-73
2022/03/02 17:44:07;;;;;;;13.02;10.10;;;16.20;63.30;;;;;;2266326;62;30303;-72
2022/03/02 17:46:34;;;;;;;11.85;9.35;;;16.30;63.50;;;;;;2263418;62;30785;-72
2022/03/02 17:49:03;;;;;;;13.57;10.23;;;16.30;63.50;;;;;;2262095;62;30295;-72
2022/03/02 17:51:38;;;;;;;14.40;9.80;;;16.40;63.50;;;;;;2272385;62;30936;-71
2022/03/02 17:54:09;;;;;;;10.88;8.52;;;16.50;63.90;;;;;;2259400;63;30001;-71
2022/03/02 17:56:35;;;;;;;10.38;8.48;;;16.50;63.60;;;;;;2259153;62;30995;-71
2022/03/02 17:59:03;;;;;;;10.20;8.57;;;16.60;63.50;;;;;;2258331;62;30697;-70
2022/03/02 18:01:30;;;;;;;9.02;7.95;;;16.60;63.50;;;;;;2259308;62;30444;-71
2022/03/02 18:03:55;;;;;;;11.23;8.38;;;16.70;63.40;;;;;;2252286;63;30659;-71
2022/03/02 18:06:21;;;;;;;13.20;9.13;;;16.70;63.40;;;;;;2259219;63;30270;-73
2022/03/02 18:08:49;;;;;;;8.93;7.47;;;16.60;63.20;;;;;;2259385;63;30418;-73
2022/03/02 18:11:15;;;;;;;9.15;7.85;;;16.60;63.60;;;;;;2259376;63;30274;-71
2022/03/02 18:13:41;;;;;;;8.55;7.03;;;16.60;63.70;;;;;;2259694;62;30488;-72
2022/03/02 18:16:07;;;;;;;9.13;7.45;;;16.70;63.60;;;;;;2266384;62;31070;-73
2022/03/02 18:18:33;;;;;;;12.05;6.70;;;16.80;63.70;;;;;;2267449;62;30157;-73
2022/03/02 18:21:04;;;;;;;9.45;6.72;;;16.80;63.80;;;;;;2267345;62;29998;-73
2022/03/02 18:23:31;;;;;;;7.53;6.57;;;16.90;63.90;;;;;;2266509;62;30291;-73
2022/03/02 18:26:11;;;;;;;7.40;6.47;;;16.90;63.80;;;;;;2260214;62;30168;-74
2022/03/02 18:28:37;;;;;;;6.97;6.00;;;17.00;63.90;;;;;;2260557;62;30094;-72
2022/03/02 18:31:03;;;;;;;10.07;6.18;;;17.10;63.90;;;;;;2266879;62;30135;-74
2022/03/02 18:33:28;;;;;;;7.75;6.05;;;17.20;63.80;;;;;;2267258;62;30180;-74
2022/03/02 18:35:56;;;;;;;6.75;6.05;;;17.20;63.70;;;;;;2266800;62;30271;-73
2022/03/02 18:38:21;;;;;;;9.18;6.20;;;17.30;63.60;;;;;;2261813;62;32312;-71
2022/03/02 18:40:48;;;;;;;6.68;5.82;;;17.30;63.50;;;;;;2257736;62;30909;-71
2022/03/02 18:43:13;;;;;;;5.85;5.25;;;17.40;63.60;;;;;;2262102;62;31030;-72
2022/03/02 18:45:39;;;;;;;6.20;5.60;;;17.40;63.90;;;;;;2261558;62;30198;-70
2022/03/02 18:48:05;;;;;;;6.22;5.50;;;17.40;63.70;;;;;;2257891;62;30357;-70
2022/03/02 18:50:32;;;;;;;5.93;5.22;;;17.40;63.70;;;;;;2259327;62;30657;-72
2022/03/02 18:52:58;;;;;;;6.82;5.15;;;17.40;63.60;;;;;;2254004;62;30141;-70
2022/03/02 18:55:25;;;;;;;8.10;5.07;;;17.40;63.50;;;;;;2263504;62;30244;-70
2022/03/02 18:57:51;;;;;;;5.90;5.30;;;17.40;63.50;;;;;;2268357;62;30585;-70
2022/03/02 19:00:17;;;;;;;6.13;5.35;;;17.50;63.60;;;;;;2284013;62;30171;-70
2022/03/02 19:02:45;;;;;;;6.18;5.35;;;17.50;63.50;;;;;;2277067;62;30829;-70
2022/03/02 19:05:11;;;;;;;6.28;5.30;;;17.50;63.40;;;;;;2284604;62;30155;-70
2022/03/02 19:07:37;;;;;;;5.68;5.18;;;17.50;63.50;;;;;;2284717;62;30181;-70
2022/03/02 19:10:05;;;;;;;5.15;4.60;;;17.50;63.50;;;;;;2284330;62;30386;-70
2022/03/02 19:12:31;;;;;;;5.80;4.85;;;17.50;63.40;;;;;;2277047;62;30112;-71
2022/03/02 19:14:57;;;;;;;6.07;5.35;;;17.50;63.50;;;;;;2276967;62;30192;-71
2022/03/02 19:17:23;;;;;;;7.60;5.20;;;17.50;63.50;;;;;;2277091;62;30290;-71
2022/03/02 19:19:48;;;;;;;5.95;5.05;;;17.50;63.60;;;;;;2270435;62;30084;-70
2022/03/02 19:22:14;;;;;;;5.90;5.15;;;17.40;63.50;;;;;;2284657;62;30164;-71
2022/03/02 19:24:42;;;;;;;6.43;5.18;;;17.40;63.50;;;;;;2276920;62;30161;-70
2022/03/02 19:27:09;;;;;;;6.10;5.50;;;17.40;63.60;;;;;;2277166;62;30113;-70
2022/03/02 19:29:34;;;;;;;5.50;4.88;;;17.40;63.60;;;;;;2276915;62;30100;-70
2022/03/02 19:32:01;;;;;;;5.63;5.10;;;17.40;63.70;;;;;;2277373;62;30185;-70
2022/03/02 19:34:27;;;;;;;5.85;5.00;;;17.40;63.70;;;;;;2284553;62;30188;-71
2022/03/02 19:36:53;;;;;;;5.25;4.75;;;17.40;63.80;;;;;;2276943;62;30222;-70
2022/03/02 19:42:04;;;;;;;7.72;5.47;;;17.40;64.50;;;;;;2278552;62;30063;-78
2022/03/02 19:44:30;;;;;;;5.53;4.90;;;17.50;64.10;;;;;;2263398;62;30958;-75
2022/03/02 19:46:57;;;;;;;5.97;5.38;;;17.50;64.00;;;;;;2284680;62;30362;-83
2022/03/02 19:49:29;;;;;;;5.50;4.97;;;17.60;63.80;;;;;;2274345;62;30370;-78
2022/03/02 19:51:55;;;;;;;;;;;17.60;63.70;;;;;;2283296;62;30000;-76
2022/03/02 19:54:22;;;;;;;6.40;5.80;;;17.60;63.80;;;;;;2283177;62;31103;-77
2022/03/02 19:56:50;;;;;;;7.65;5.15;;;17.60;63.70;;;;;;2275445;62;30116;-76
2022/03/02 19:59:16;;;;;;;5.97;5.38;;;17.60;63.80;;;;;;2268300;62;30320;-76
2022/03/02 20:01:42;;;;;;;5.80;5.20;;;17.60;63.90;;;;;;2275565;62;30966;-77
2022/03/02 20:04:08;;;;;;;6.20;5.60;;;17.60;64.60;;;;;;2282049;62;31034;-76
2022/03/02 20:06:34;;;;;;;5.78;5.20;;;17.60;63.90;;;;;;2282894;62;30467;-76
2022/03/02 20:08:59;;;;;;;5.97;5.38;;;17.60;64.00;;;;;;2283226;62;30161;-76
2022/03/02 20:11:27;;;;;;;6.80;6.10;;;17.60;64.10;;;;;;2283213;62;30183;-75
2022/03/02 20:13:53;;;;;;;5.82;5.03;;;17.60;64.10;;;;;;2283046;62;30870;-76
2022/03/02 20:16:19;;;;;;;6.72;5.75;;;17.60;64.10;;;;;;2282815;62;30631;-76
2022/03/02 20:18:45;;;;;;;6.18;5.57;;;17.60;64.10;;;;;;2282960;62;30188;-76
2022/03/02 20:21:11;;;;;;;9.20;6.53;;;17.60;64.10;;;;;;2283038;62;30287;-75
2022/03/02 20:23:37;;;;;;;7.65;6.85;;;17.60;64.20;;;;;;2275716;62;30767;-75
2022/03/02 20:26:03;;;;;;;5.88;5.25;;;17.50;64.20;;;;;;2282869;62;30322;-75
2022/03/02 20:28:29;;;;;;;7.30;6.25;;;17.40;64.30;;;;;;2283088;62;30257;-75
2022/03/02 20:30:56;;;;;;;6.53;5.85;;;17.40;64.60;;;;;;2283143;62;30133;-75
2022/03/02 20:33:24;;;;;;;6.80;6.10;;;17.40;64.50;;;;;;2275529;62;30872;-77
2022/03/02 20:35:50;;;;;;;6.28;5.68;;;17.40;64.40;;;;;;2283080;62;30450;-77
2022/03/02 20:38:17;;;;;;;6.70;5.95;;;17.40;64.40;;;;;;2275682;62;30230;-76
2022/03/02 20:40:44;;;;;;;6.53;5.82;;;17.40;64.40;;;;;;2282818;62;30267;-76
2022/03/02 20:43:10;;;;;;;6.97;6.20;;;17.40;64.40;;;;;;2275550;62;30088;-78
2022/03/02 20:45:37;;;;;;;6.47;5.88;;;17.50;64.40;;;;;;2269128;62;30276;-77
2022/03/02 20:48:04;;;;;;;6.60;5.90;;;17.50;64.40;;;;;;2283895;62;30167;-79
2022/03/02 20:50:30;;;;;;;6.80;6.18;;;17.50;64.50;;;;;;2284269;62;30222;-77
2022/03/02 20:52:57;;;;;;;6.90;6.20;;;17.50;64.40;;;;;;2276770;62;30096;-79
2022/03/02 20:55:23;;;;;;;7.25;6.55;;;17.50;64.40;;;;;;2284029;62;30738;-80
2022/03/02 20:57:49;;;;;;;6.80;6.10;;;17.50;64.40;;;;;;2276746;62;30528;-77
2022/03/02 21:00:16;;;;;;;8.35;6.57;;;17.50;64.50;;;;;;2276601;62;30256;-79
2022/03/02 21:02:41;;;;;;;7.20;6.50;;;17.50;64.40;;;;;;2276399;62;30235;-80
2022/03/02 21:05:07;;;;;;;8.07;7.28;;;17.50;64.40;;;;;;2283334;62;30426;-80
2022/03/02 21:07:34;;;;;;;9.77;8.23;;;17.50;64.50;;;;;;2276369;62;30438;-80
2022/03/02 21:10:00;;;;;;;8.27;7.47;;;17.40;64.40;;;;;;2283871;62;30368;-77
2022/03/02 21:12:27;;;;;;;7.82;6.97;;;17.40;64.70;;;;;;2275373;62;32321;-78
2022/03/02 21:14:53;;;;;;;7.47;6.78;;;17.40;64.80;;;;;;2283167;62;31656;-78
2022/03/02 21:17:19;;;;;;;8.02;7.22;;;17.40;64.90;;;;;;2282985;62;30246;-72
2022/03/02 21:19:45;;;;;;;8.35;6.53;;;17.40;64.90;;;;;;2283088;62;30097;-72
2022/03/02 21:22:14;;;;;;;8.70;6.32;;;17.40;64.90;;;;;;2276322;62;31001;-72
2022/03/02 21:24:44;;;;;;;7.13;6.45;;;17.40;65.00;;;;;;2283974;62;30429;-71
2022/03/02 21:27:10;;;;;;;10.00;7.53;;;17.40;65.00;;;;;;2276567;62;30168;-74
2022/03/02 21:29:36;;;;;;;7.57;6.78;;;17.40;65.00;;;;;;2276398;62;30427;-74
2022/03/02 21:32:03;;;;;;;7.78;6.97;;;17.30;64.80;;;;;;2276531;62;30858;-72
2022/03/02 21:35:11;;;;;;;7.10;6.40;;;17.40;64.70;;;;;;2283921;62;30195;-73
2022/03/02 21:37:18;;;;;;;7.80;7.00;;;17.40;64.70;;;;;;2274269;62;31006;-73
2022/03/02 21:39:45;;;;;;;7.57;6.68;;;17.40;64.70;;;;;;2276525;62;30452;-72
2022/03/02 21:42:12;;;;;;;7.40;6.30;;;17.40;64.70;;;;;;2283780;62;30247;-72
2022/03/02 21:44:38;;;;;;;7.95;7.15;;;17.40;64.80;;;;;;2283792;62;30660;-72
2022/03/02 21:47:05;;;;;;;8.27;6.68;;;17.40;64.90;;;;;;2283312;62;30083;-72
2022/03/02 21:49:31;;;;;;;6.88;6.18;;;17.40;64.90;;;;;;2276268;62;30269;-74
2022/03/02 21:51:57;;;;;;;8.13;7.10;;;17.40;64.90;;;;;;2283674;62;31055;-72
2022/03/02 21:54:23;;;;;;;8.57;7.68;;;17.40;64.90;;;;;;2283832;62;30163;-73
2022/03/02 21:56:51;;;;;;;9.10;8.15;;;17.40;64.90;;;;;;2283729;62;30334;-73
2022/03/02 21:59:17;;;;;;;9.20;8.27;;;17.40;64.90;;;;;;2283251;62;30192;-73
2022/03/02 22:01:43;;;;;;;8.90;7.72;;;17.40;64.80;;;;;;2283714;62;30894;-73
2022/03/02 22:04:09;;;;;;;8.13;7.32;;;17.30;64.90;;;;;;2283673;62;30636;-73
2022/03/02 22:06:36;;;;;;;7.97;7.18;;;17.30;65.00;;;;;;2283565;62;30299;-73
2022/03/02 22:09:02;;;;;;;8.00;7.07;;;17.30;65.10;;;;;;2283697;62;30505;-72
2022/03/02 22:11:28;;;;;;;9.85;7.50;;;17.20;65.00;;;;;;2281757;62;30438;-73
2022/03/02 22:13:55;;;;;;;7.75;7.00;;;17.30;65.10;;;;;;2275811;62;30748;-72
2022/03/02 22:16:24;;;;;;;7.80;7.00;;;17.30;65.10;;;;;;2283676;62;30692;-71
2022/03/02 22:18:50;;;;;;;7.88;7.07;;;17.30;65.10;;;;;;2283058;62;30192;-73
2022/03/02 22:21:16;;;;;;;8.10;7.30;;;17.30;65.10;;;;;;2282538;62;30218;-72
2022/03/02 22:23:41;;;;;;;8.07;7.32;;;17.30;65.20;;;;;;2282340;62;30378;-74
2022/03/02 22:26:08;;;;;;;7.53;6.72;;;17.40;65.20;;;;;;2282421;62;30260;-73
2022/03/02 22:28:34;;;;;;;9.77;8.73;;;17.40;65.10;;;;;;2275898;62;30236;-75
2022/03/02 22:31:00;;;;;;;9.77;7.97;;;17.40;65.20;;;;;;2283712;62;30194;-72
2022/03/02 22:33:27;;;;;;;8.55;7.65;;;17.30;65.00;;;;;;2283322;62;30859;-73
2022/03/02 22:35:52;;;;;;;8.07;7.25;;;17.20;65.10;;;;;;2275134;62;30156;-73
2022/03/02 22:38:18;;;;;;;8.40;7.20;;;17.20;65.20;;;;;;2283171;62;30411;-72
2022/03/02 22:40:44;;;;;;;7.45;6.65;;;17.20;65.30;;;;;;2275771;62;30857;-72
2022/03/02 22:43:10;;;;;;;8.38;7.57;;;17.20;66.00;;;;;;2283425;62;30320;-72
2022/03/02 22:45:36;;;;;;;7.90;7.10;;;17.20;65.20;;;;;;2283500;62;30308;-74
2022/03/02 22:48:02;;;;;;;8.38;7.47;;;17.20;65.20;;;;;;2283187;62;30202;-74
2022/03/02 22:50:28;;;;;;;8.15;7.32;;;17.20;65.20;;;;;;2276091;62;31043;-72
2022/03/02 22:52:54;;;;;;;8.38;7.47;;;17.30;65.20;;;;;;2283450;62;30214;-73
2022/03/02 22:55:20;;;;;;;9.25;7.30;;;17.30;65.20;;;;;;2275943;62;30172;-74
2022/03/02 22:57:46;;;;;;;8.88;7.55;;;17.30;65.20;;;;;;2283673;62;30847;-73
2022/03/02 23:00:27;;;;;;;8.73;7.18;;;17.30;65.20;;;;;;2283325;62;30090;-71
2022/03/02 23:02:54;;;;;;;7.63;6.93;;;17.30;65.50;;;;;;2283391;62;30107;-72
2022/03/02 23:16:21;;;;;;;11.05;8.68;;;17.30;65.80;;;;;;2277016;62;30057;-71
2022/03/02 23:18:46;;;;;;;8.45;7.63;;;17.30;66.30;;;;;;2283629;62;30326;-71
2022/03/02 23:21:12;;;;;;;8.60;7.70;;;17.30;65.30;;;;;;2283296;62;30184;-72
2022/03/02 23:23:38;;;;;;;7.72;6.93;;;17.20;65.10;;;;;;2283254;62;30431;-72
